sensor_id;sensor_type;location;lat;lon;timestamp;P1;durP1;ratioP1;P2;durP2;ratioP2
80868;SDS011;70295;40.182;44.498;2023-12-20T00:00:01;24.3;;;12.1;;
80868;SDS011;70295;40.182;44.498;2023-12-20T00:02:01;20.9;;;12.2;;
80868;SDS011;70295;40.182;44.498;2023-12-20T00:04:02;21.4;;;11.7;;
80868;SDS011;70295;40.182;44.498;2023-12-20T00:06:01;22.4;;;12.9;;
80868;SDS011;70295;40.182;44.498;2023-12-20T00:08:01;22.8;;;13.9;;
80868;SDS011;70295;40.182;44.498;2023-12-20T00:10:01;24.3;;;13.6;;
80868;SDS011;70295;40.182;44.498;2023-12-20T00:12:01;24.2;;;14.4;;
80868;SDS011;70295;40.182;44.498;2023-12-20T00:14:01;24.5;;;15.1;;
80868;SDS011;70295;40.182;44.498;2023-12-20T00:16:01;25.6;;;14.8;;
80868;SDS011;70295;40.182;44.498;2023-12-20T00:18:01;27.3;;;16.8;;
80868;SDS011;70295;40.182;44.498;2023-12-20T00:20:01;27.4;;;16.8;;
80868;SDS011;70295;40.182;44.498;2023-12-20T00:22:01;28.5;;;18;;
80868;SDS011;70295;40.182;44.498;2023-12-20T00:24:01;29.2;;;17;;
80868;SDS011;70295;40.182;44.498;2023-12-20T00:26:01;31.9;;;17;;
80868;SDS011;70295;40.182;44.498;2023-12-20T00:28:01;26.1;;;16.5;;
80868;SDS011;70295;40.182;44.498;2023-12-20T00:30:01;25.9;;;15.9;;
80868;SDS011;70295;40.182;44.498;2023-12-20T00:32:01;26.1;;;15.5;;
80868;SDS011;70295;40.182;44.498;2023-12-20T00:34:01;25.9;;;15.2;;
80868;SDS011;70295;40.182;44.498;2023-12-20T00:36:01;26.2;;;14.8;;
80868;SDS011;70295;40.182;44.498;2023-12-20T00:38:01;28.6;;;16.6;;
80868;SDS011;70295;40.182;44.498;2023-12-20T00:40:01;22.7;;;14;;
80868;SDS011;70295;40.182;44.498;2023-12-20T00:42:01;19.3;;;10.4;;
80868;SDS011;70295;40.182;44.498;2023-12-20T00:44:01;21.2;;;9.9;;
80868;SDS011;70295;40.182;44.498;2023-12-20T00:46:01;21.4;;;11.6;;
80868;SDS011;70295;40.182;44.498;2023-12-20T00:48:01;19.7;;;11.2;;
80868;SDS011;70295;40.182;44.498;2023-12-20T00:50:01;20.3;;;10.5;;
80868;SDS011;70295;40.182;44.498;2023-12-20T00:52:01;20.3;;;9.8;;
80868;SDS011;70295;40.182;44.498;2023-12-20T00:54:01;20.1;;;9.2;;
80868;SDS011;70295;40.182;44.498;2023-12-20T00:56:01;19.2;;;9;;
80868;SDS011;70295;40.182;44.498;2023-12-20T00:58:01;20.8;;;9.6;;
80868;SDS011;70295;40.182;44.498;2023-12-20T01:00:01;19.6;;;9.6;;
80868;SDS011;70295;40.182;44.498;2023-12-20T01:02:01;20.3;;;9.7;;
80868;SDS011;70295;40.182;44.498;2023-12-20T01:04:01;19.4;;;8.6;;
80868;SDS011;70295;40.182;44.498;2023-12-20T01:06:01;19.5;;;9.5;;
80868;SDS011;70295;40.182;44.498;2023-12-20T01:08:01;18.8;;;8.8;;
80868;SDS011;70295;40.182;44.498;2023-12-20T01:10:01;19.1;;;9.2;;
80868;SDS011;70295;40.182;44.498;2023-12-20T01:12:01;21.4;;;10.7;;
80868;SDS011;70295;40.182;44.498;2023-12-20T01:14:01;15.7;;;9.5;;
80868;SDS011;70295;40.182;44.498;2023-12-20T01:16:01;18.5;;;9.3;;
80868;SDS011;70295;40.182;44.498;2023-12-20T01:18:01;17.6;;;8.7;;
80868;SDS011;70295;40.182;44.498;2023-12-20T01:20:01;17.4;;;9;;
80868;SDS011;70295;40.182;44.498;2023-12-20T01:22:01;17.9;;;8.9;;
80868;SDS011;70295;40.182;44.498;2023-12-20T01:24:01;15.2;;;8.1;;
80868;SDS011;70295;40.182;44.498;2023-12-20T01:26:01;17;;;8.7;;
80868;SDS011;70295;40.182;44.498;2023-12-20T01:33:24;16.3;;;8.6;;
80868;SDS011;70295;40.182;44.498;2023-12-20T01:50:20;14.9;;;7.6;;
80868;SDS011;70295;40.182;44.498;2023-12-20T01:52:20;17.4;;;8.1;;
80868;SDS011;70295;40.182;44.498;2023-12-20T01:54:20;17.8;;;8.9;;
80868;SDS011;70295;40.182;44.498;2023-12-20T01:59:00;15;;;7.5;;
80868;SDS011;70295;40.182;44.498;2023-12-20T02:01:00;17.8;;;8.6;;
80868;SDS011;70295;40.182;44.498;2023-12-20T02:06:52;15.4;;;7.4;;
80868;SDS011;70295;40.182;44.498;2023-12-20T02:08:40;16.5;;;8.2;;
80868;SDS011;70295;40.182;44.498;2023-12-20T02:10:40;18.5;;;8.3;;
80868;SDS011;70295;40.182;44.498;2023-12-20T02:37:58;15.2;;;8.3;;
80868;SDS011;70295;40.182;44.498;2023-12-20T02:43:53;14.8;;;7.3;;
80868;SDS011;70295;40.182;44.498;2023-12-20T02:46:11;15.5;;;8.3;;
80868;SDS011;70295;40.182;44.498;2023-12-20T02:48:11;17.4;;;7.6;;
80868;SDS011;70295;40.182;44.498;2023-12-20T02:51:29;13.5;;;7.5;;
80868;SDS011;70295;40.182;44.498;2023-12-20T02:57:16;13.9;;;7.2;;
80868;SDS011;70295;40.182;44.498;2023-12-20T03:02:19;14.4;;;7.4;;
80868;SDS011;70295;40.182;44.498;2023-12-20T03:05:05;15.1;;;7.4;;
80868;SDS011;70295;40.182;44.498;2023-12-20T03:10:19;16.5;;;8;;
80868;SDS011;70295;40.182;44.498;2023-12-20T03:12:46;17;;;8.3;;
80868;SDS011;70295;40.182;44.498;2023-12-20T03:13:59;15.8;;;7.2;;
80868;SDS011;70295;40.182;44.498;2023-12-20T03:15:59;16;;;8.3;;
80868;SDS011;70295;40.182;44.498;2023-12-20T03:17:59;18.7;;;8.6;;
80868;SDS011;70295;40.182;44.498;2023-12-20T03:19:59;15.9;;;8.6;;
80868;SDS011;70295;40.182;44.498;2023-12-20T03:21:59;17.2;;;8.3;;
80868;SDS011;70295;40.182;44.498;2023-12-20T03:23:59;19.9;;;8.7;;
80868;SDS011;70295;40.182;44.498;2023-12-20T03:25:59;16.5;;;8.8;;
80868;SDS011;70295;40.182;44.498;2023-12-20T03:30:42;21.2;;;9.3;;
80868;SDS011;70295;40.182;44.498;2023-12-20T03:33:08;21.2;;;9.7;;
80868;SDS011;70295;40.182;44.498;2023-12-20T03:36:10;18.2;;;9.4;;
80868;SDS011;70295;40.182;44.498;2023-12-20T03:38:10;19.6;;;9.8;;
80868;SDS011;70295;40.182;44.498;2023-12-20T03:40:46;20.2;;;9.7;;
80868;SDS011;70295;40.182;44.498;2023-12-20T03:42:46;19.4;;;9.5;;
80868;SDS011;70295;40.182;44.498;2023-12-20T03:44:46;19.1;;;10.1;;
80868;SDS011;70295;40.182;44.498;2023-12-20T03:46:46;17.8;;;10;;
80868;SDS011;70295;40.182;44.498;2023-12-20T03:50:25;20.6;;;11;;
80868;SDS011;70295;40.182;44.498;2023-12-20T03:53:57;21.2;;;9.9;;
80868;SDS011;70295;40.182;44.498;2023-12-20T03:55:57;21.9;;;11.2;;
80868;SDS011;70295;40.182;44.498;2023-12-20T03:57:57;21.1;;;10.7;;
80868;SDS011;70295;40.182;44.498;2023-12-20T04:07:56;31.3;;;16.6;;
80868;SDS011;70295;40.182;44.498;2023-12-20T04:11:28;36.3;;;19.2;;
80868;SDS011;70295;40.182;44.498;2023-12-20T04:16:26;30.1;;;15.9;;
80868;SDS011;70295;40.182;44.498;2023-12-20T04:18:48;31.3;;;17.1;;
80868;SDS011;70295;40.182;44.498;2023-12-20T04:20:48;35;;;18;;
80868;SDS011;70295;40.182;44.498;2023-12-20T04:26:40;34.6;;;16.6;;
80868;SDS011;70295;40.182;44.498;2023-12-20T04:28:40;32.8;;;15.6;;
80868;SDS011;70295;40.182;44.498;2023-12-20T04:30:40;29.7;;;15.5;;
80868;SDS011;70295;40.182;44.498;2023-12-20T04:32:40;25;;;12.4;;
80868;SDS011;70295;40.182;44.498;2023-12-20T04:34:40;24.9;;;12.6;;
80868;SDS011;70295;40.182;44.498;2023-12-20T04:36:40;23.3;;;12.3;;
80868;SDS011;70295;40.182;44.498;2023-12-20T04:38:40;29.2;;;14;;
80868;SDS011;70295;40.182;44.498;2023-12-20T04:40:40;28.7;;;13.5;;
80868;SDS011;70295;40.182;44.498;2023-12-20T04:42:40;32.9;;;17.1;;
80868;SDS011;70295;40.182;44.498;2023-12-20T04:44:40;38.8;;;19.9;;
80868;SDS011;70295;40.182;44.498;2023-12-20T04:46:40;33.6;;;17.7;;
80868;SDS011;70295;40.182;44.498;2023-12-20T04:48:40;37.4;;;18.6;;
80868;SDS011;70295;40.182;44.498;2023-12-20T04:50:40;52.1;;;31.2;;
80868;SDS011;70295;40.182;44.498;2023-12-20T04:52:40;30.2;;;17.8;;
80868;SDS011;70295;40.182;44.498;2023-12-20T04:54:40;26;;;13.9;;
80868;SDS011;70295;40.182;44.498;2023-12-20T05:02:52;28.2;;;12.6;;
80868;SDS011;70295;40.182;44.498;2023-12-20T05:04:52;28.3;;;13.5;;
80868;SDS011;70295;40.182;44.498;2023-12-20T05:06:52;28.4;;;14.6;;
80868;SDS011;70295;40.182;44.498;2023-12-20T05:08:52;32.2;;;14;;
80868;SDS011;70295;40.182;44.498;2023-12-20T05:10:54;30.2;;;15.6;;
80868;SDS011;70295;40.182;44.498;2023-12-20T05:12:52;34.3;;;16.2;;
80868;SDS011;70295;40.182;44.498;2023-12-20T05:14:52;29.7;;;14.8;;
80868;SDS011;70295;40.182;44.498;2023-12-20T05:16:52;35.9;;;17.3;;
80868;SDS011;70295;40.182;44.498;2023-12-20T05:18:52;30.7;;;17.1;;
80868;SDS011;70295;40.182;44.498;2023-12-20T05:20:52;31.7;;;15.1;;
80868;SDS011;70295;40.182;44.498;2023-12-20T05:22:52;27.1;;;13;;
80868;SDS011;70295;40.182;44.498;2023-12-20T05:30:14;25.2;;;13.3;;
80868;SDS011;70295;40.182;44.498;2023-12-20T05:39:45;25.1;;;12.9;;
80868;SDS011;70295;40.182;44.498;2023-12-20T05:41:48;28.9;;;14.2;;
80868;SDS011;70295;40.182;44.498;2023-12-20T05:43:48;27.5;;;14.3;;
80868;SDS011;70295;40.182;44.498;2023-12-20T05:50:01;24;;;12.2;;
80868;SDS011;70295;40.182;44.498;2023-12-20T05:52:01;25.5;;;12.7;;
80868;SDS011;70295;40.182;44.498;2023-12-20T05:54:01;24.1;;;12.9;;
80868;SDS011;70295;40.182;44.498;2023-12-20T05:56:01;25.5;;;13.7;;
80868;SDS011;70295;40.182;44.498;2023-12-20T05:58:01;29.3;;;14.3;;
80868;SDS011;70295;40.182;44.498;2023-12-20T06:00:01;25.3;;;13.3;;
80868;SDS011;70295;40.182;44.498;2023-12-20T06:02:02;30.7;;;14.8;;
80868;SDS011;70295;40.182;44.498;2023-12-20T06:04:01;28.4;;;15.6;;
80868;SDS011;70295;40.182;44.498;2023-12-20T06:06:08;28.5;;;15.5;;
80868;SDS011;70295;40.182;44.498;2023-12-20T06:08:01;30.3;;;15.6;;
80868;SDS011;70295;40.182;44.498;2023-12-20T06:10:01;27;;;14.9;;
80868;SDS011;70295;40.182;44.498;2023-12-20T06:12:01;31.5;;;16;;
80868;SDS011;70295;40.182;44.498;2023-12-20T06:14:01;32.1;;;16.5;;
80868;SDS011;70295;40.182;44.498;2023-12-20T06:16:01;32.6;;;18.8;;
80868;SDS011;70295;40.182;44.498;2023-12-20T06:18:01;39.6;;;20.7;;
80868;SDS011;70295;40.182;44.498;2023-12-20T06:20:01;42;;;24.8;;
80868;SDS011;70295;40.182;44.498;2023-12-20T06:22:01;44.5;;;25.9;;
80868;SDS011;70295;40.182;44.498;2023-12-20T06:24:01;51.8;;;29.1;;
80868;SDS011;70295;40.182;44.498;2023-12-20T06:26:01;48.9;;;29.6;;
80868;SDS011;70295;40.182;44.498;2023-12-20T06:28:01;53.2;;;29.6;;
80868;SDS011;70295;40.182;44.498;2023-12-20T06:30:01;57.3;;;31.4;;
80868;SDS011;70295;40.182;44.498;2023-12-20T06:32:01;54.1;;;30.2;;
80868;SDS011;70295;40.182;44.498;2023-12-20T06:34:01;51.7;;;31.1;;
80868;SDS011;70295;40.182;44.498;2023-12-20T06:36:01;54.1;;;30.4;;
80868;SDS011;70295;40.182;44.498;2023-12-20T06:38:01;54.2;;;30.7;;
80868;SDS011;70295;40.182;44.498;2023-12-20T06:40:01;54.1;;;30;;
80868;SDS011;70295;40.182;44.498;2023-12-20T06:42:01;52.1;;;28.1;;
80868;SDS011;70295;40.182;44.498;2023-12-20T06:44:01;51.7;;;29.1;;
80868;SDS011;70295;40.182;44.498;2023-12-20T06:46:01;53.4;;;27.5;;
80868;SDS011;70295;40.182;44.498;2023-12-20T06:48:01;52.5;;;28.9;;
80868;SDS011;70295;40.182;44.498;2023-12-20T06:50:01;46.9;;;27.6;;
80868;SDS011;70295;40.182;44.498;2023-12-20T06:52:01;49.9;;;27.4;;
80868;SDS011;70295;40.182;44.498;2023-12-20T06:54:01;46.3;;;25.6;;
80868;SDS011;70295;40.182;44.498;2023-12-20T06:56:01;46.3;;;25.9;;
80868;SDS011;70295;40.182;44.498;2023-12-20T06:58:01;45.7;;;26.4;;
80868;SDS011;70295;40.182;44.498;2023-12-20T07:00:01;45.8;;;26.3;;
80868;SDS011;70295;40.182;44.498;2023-12-20T07:02:01;46.9;;;25.6;;
80868;SDS011;70295;40.182;44.498;2023-12-20T07:04:01;45.6;;;27.1;;
80868;SDS011;70295;40.182;44.498;2023-12-20T07:06:01;39.5;;;24.8;;
80868;SDS011;70295;40.182;44.498;2023-12-20T07:08:01;39.9;;;23.7;;
80868;SDS011;70295;40.182;44.498;2023-12-20T07:10:01;41.8;;;24.5;;
80868;SDS011;70295;40.182;44.498;2023-12-20T07:12:01;39.2;;;24.7;;
80868;SDS011;70295;40.182;44.498;2023-12-20T07:14:01;42.7;;;25.8;;
80868;SDS011;70295;40.182;44.498;2023-12-20T07:16:01;41.3;;;23.5;;
80868;SDS011;70295;40.182;44.498;2023-12-20T07:18:01;37.9;;;23;;
80868;SDS011;70295;40.182;44.498;2023-12-20T07:20:01;40.5;;;23.8;;
80868;SDS011;70295;40.182;44.498;2023-12-20T07:22:01;37.9;;;22.5;;
80868;SDS011;70295;40.182;44.498;2023-12-20T07:24:01;38.2;;;22.8;;
80868;SDS011;70295;40.182;44.498;2023-12-20T07:26:01;37.9;;;21.5;;
80868;SDS011;70295;40.182;44.498;2023-12-20T07:28:01;40.8;;;22.5;;
80868;SDS011;70295;40.182;44.498;2023-12-20T07:30:01;38.2;;;22.3;;
80868;SDS011;70295;40.182;44.498;2023-12-20T07:32:01;35.3;;;21.2;;
80868;SDS011;70295;40.182;44.498;2023-12-20T07:34:01;34.3;;;20;;
80868;SDS011;70295;40.182;44.498;2023-12-20T07:36:01;31.9;;;20.3;;
80868;SDS011;70295;40.182;44.498;2023-12-20T07:38:01;31.1;;;19.6;;
80868;SDS011;70295;40.182;44.498;2023-12-20T07:40:01;34.4;;;19;;
80868;SDS011;70295;40.182;44.498;2023-12-20T07:42:01;31.4;;;18.1;;
80868;SDS011;70295;40.182;44.498;2023-12-20T07:44:01;34.3;;;18.9;;
80868;SDS011;70295;40.182;44.498;2023-12-20T07:46:05;30.6;;;18.6;;
80868;SDS011;70295;40.182;44.498;2023-12-20T07:48:01;35.5;;;21.3;;
80868;SDS011;70295;40.182;44.498;2023-12-20T07:50:01;38.3;;;21.5;;
80868;SDS011;70295;40.182;44.498;2023-12-20T07:52:01;35.4;;;21.4;;
80868;SDS011;70295;40.182;44.498;2023-12-20T07:54:01;43.1;;;24.4;;
80868;SDS011;70295;40.182;44.498;2023-12-20T07:56:01;43.5;;;25.9;;
80868;SDS011;70295;40.182;44.498;2023-12-20T07:58:01;47.3;;;26.3;;
80868;SDS011;70295;40.182;44.498;2023-12-20T08:00:01;51;;;31;;
80868;SDS011;70295;40.182;44.498;2023-12-20T08:01:44;52.9;;;32.7;;
80868;SDS011;70295;40.182;44.498;2023-12-20T08:05:47;59.8;;;34;;
80868;SDS011;70295;40.182;44.498;2023-12-20T08:08:41;59.3;;;33.9;;
80868;SDS011;70295;40.182;44.498;2023-12-20T08:10:41;58.7;;;31.9;;
80868;SDS011;70295;40.182;44.498;2023-12-20T08:12:41;56.6;;;32.6;;
80868;SDS011;70295;40.182;44.498;2023-12-20T08:14:41;59;;;36.5;;
80868;SDS011;70295;40.182;44.498;2023-12-20T08:16:41;66.5;;;37.7;;
80868;SDS011;70295;40.182;44.498;2023-12-20T08:18:41;70;;;38.5;;
80868;SDS011;70295;40.182;44.498;2023-12-20T08:20:41;68.3;;;37.8;;
80868;SDS011;70295;40.182;44.498;2023-12-20T08:22:41;67.9;;;37.9;;
80868;SDS011;70295;40.182;44.498;2023-12-20T08:24:41;62.6;;;34.6;;
80868;SDS011;70295;40.182;44.498;2023-12-20T08:26:41;61.7;;;35.1;;
80868;SDS011;70295;40.182;44.498;2023-12-20T08:28:41;61;;;34.3;;
80868;SDS011;70295;40.182;44.498;2023-12-20T08:30:41;56.7;;;31.2;;
80868;SDS011;70295;40.182;44.498;2023-12-20T08:32:41;58.1;;;31.1;;
80868;SDS011;70295;40.182;44.498;2023-12-20T08:34:41;55.8;;;33.3;;
80868;SDS011;70295;40.182;44.498;2023-12-20T08:36:41;61.4;;;34.5;;
80868;SDS011;70295;40.182;44.498;2023-12-20T08:38:41;57.6;;;33.9;;
80868;SDS011;70295;40.182;44.498;2023-12-20T08:40:41;61.5;;;33.8;;
80868;SDS011;70295;40.182;44.498;2023-12-20T08:42:41;60.6;;;35.1;;
80868;SDS011;70295;40.182;44.498;2023-12-20T08:44:41;65.4;;;36.3;;
80868;SDS011;70295;40.182;44.498;2023-12-20T08:46:41;66.5;;;38;;
80868;SDS011;70295;40.182;44.498;2023-12-20T08:48:41;64;;;37.3;;
80868;SDS011;70295;40.182;44.498;2023-12-20T08:50:41;64.5;;;37.4;;
80868;SDS011;70295;40.182;44.498;2023-12-20T08:52:41;66;;;36.4;;
80868;SDS011;70295;40.182;44.498;2023-12-20T08:54:41;65.2;;;36.9;;
80868;SDS011;70295;40.182;44.498;2023-12-20T08:56:41;60.4;;;36.4;;
80868;SDS011;70295;40.182;44.498;2023-12-20T08:58:41;62.7;;;37.4;;
80868;SDS011;70295;40.182;44.498;2023-12-20T09:00:41;61.3;;;37.1;;
80868;SDS011;70295;40.182;44.498;2023-12-20T09:02:41;65.2;;;37.6;;
80868;SDS011;70295;40.182;44.498;2023-12-20T09:04:41;67.4;;;37.9;;
80868;SDS011;70295;40.182;44.498;2023-12-20T09:06:41;65.9;;;36.4;;
80868;SDS011;70295;40.182;44.498;2023-12-20T09:08:41;68.8;;;37.4;;
80868;SDS011;70295;40.182;44.498;2023-12-20T09:10:41;66.9;;;38.2;;
80868;SDS011;70295;40.182;44.498;2023-12-20T09:12:14;65.7;;;38.8;;
80868;SDS011;70295;40.182;44.498;2023-12-20T09:14:14;68.5;;;38.7;;
80868;SDS011;70295;40.182;44.498;2023-12-20T09:16:15;68.7;;;39.4;;
80868;SDS011;70295;40.182;44.498;2023-12-20T09:18:14;64.1;;;36.9;;
80868;SDS011;70295;40.182;44.498;2023-12-20T09:20:48;63.5;;;35.6;;
80868;SDS011;70295;40.182;44.498;2023-12-20T09:22:48;60.8;;;35;;
80868;SDS011;70295;40.182;44.498;2023-12-20T09:24:48;60.1;;;35.1;;
80868;SDS011;70295;40.182;44.498;2023-12-20T09:26:48;59.5;;;35.3;;
80868;SDS011;70295;40.182;44.498;2023-12-20T09:28:29;63.3;;;36.5;;
80868;SDS011;70295;40.182;44.498;2023-12-20T09:30:38;60.3;;;34.2;;
80868;SDS011;70295;40.182;44.498;2023-12-20T09:32:38;60.7;;;34.5;;
80868;SDS011;70295;40.182;44.498;2023-12-20T09:34:38;62.3;;;34.8;;
80868;SDS011;70295;40.182;44.498;2023-12-20T09:36:38;52.3;;;31.2;;
80868;SDS011;70295;40.182;44.498;2023-12-20T09:38:05;53.5;;;31.3;;
80868;SDS011;70295;40.182;44.498;2023-12-20T09:40:06;52.6;;;31.6;;
80868;SDS011;70295;40.182;44.498;2023-12-20T09:42:06;53.4;;;31.2;;
80868;SDS011;70295;40.182;44.498;2023-12-20T09:44:05;54.9;;;32.6;;
80868;SDS011;70295;40.182;44.498;2023-12-20T09:46:06;49.9;;;30.8;;
80868;SDS011;70295;40.182;44.498;2023-12-20T09:48:05;53;;;31.5;;
80868;SDS011;70295;40.182;44.498;2023-12-20T09:50:06;51.9;;;31.6;;
80868;SDS011;70295;40.182;44.498;2023-12-20T09:52:06;52.4;;;32;;
80868;SDS011;70295;40.182;44.498;2023-12-20T09:54:05;59.7;;;33;;
80868;SDS011;70295;40.182;44.498;2023-12-20T09:56:06;56.8;;;32.5;;
80868;SDS011;70295;40.182;44.498;2023-12-20T09:58:05;57;;;33.5;;
80868;SDS011;70295;40.182;44.498;2023-12-20T10:00:06;56.5;;;33.1;;
80868;SDS011;70295;40.182;44.498;2023-12-20T10:02:08;59.1;;;33.8;;
80868;SDS011;70295;40.182;44.498;2023-12-20T10:04:06;58.5;;;36.2;;
80868;SDS011;70295;40.182;44.498;2023-12-20T10:06:05;63.8;;;37.4;;
80868;SDS011;70295;40.182;44.498;2023-12-20T10:08:05;60.3;;;34.4;;
80868;SDS011;70295;40.182;44.498;2023-12-20T10:10:06;58.5;;;35.7;;
80868;SDS011;70295;40.182;44.498;2023-12-20T10:12:05;57.1;;;33.8;;
80868;SDS011;70295;40.182;44.498;2023-12-20T10:14:05;64.2;;;36.2;;
80868;SDS011;70295;40.182;44.498;2023-12-20T10:16:06;64.9;;;36.2;;
80868;SDS011;70295;40.182;44.498;2023-12-20T10:18:05;62;;;36.8;;
80868;SDS011;70295;40.182;44.498;2023-12-20T10:20:05;66.2;;;35.8;;
80868;SDS011;70295;40.182;44.498;2023-12-20T10:22:05;61.5;;;34;;
80868;SDS011;70295;40.182;44.498;2023-12-20T10:26:08;63.3;;;35.3;;
80868;SDS011;70295;40.182;44.498;2023-12-20T10:28:13;64.8;;;36.4;;
80868;SDS011;70295;40.182;44.498;2023-12-20T10:30:08;64.5;;;34.7;;
80868;SDS011;70295;40.182;44.498;2023-12-20T10:35:46;60.7;;;33.4;;
80868;SDS011;70295;40.182;44.498;2023-12-20T10:37:46;65.3;;;35.5;;
80868;SDS011;70295;40.182;44.498;2023-12-20T10:42:42;63.6;;;35;;
80868;SDS011;70295;40.182;44.498;2023-12-20T10:51:14;63.8;;;36.3;;
80868;SDS011;70295;40.182;44.498;2023-12-20T10:53:13;66.6;;;36.2;;
80868;SDS011;70295;40.182;44.498;2023-12-20T10:55:13;62.9;;;35.1;;
80868;SDS011;70295;40.182;44.498;2023-12-20T10:57:12;58.9;;;33.3;;
80868;SDS011;70295;40.182;44.498;2023-12-20T10:59:15;62.9;;;34.8;;
80868;SDS011;70295;40.182;44.498;2023-12-20T11:01:16;63.4;;;34.4;;
80868;SDS011;70295;40.182;44.498;2023-12-20T11:03:13;57.9;;;35.3;;
80868;SDS011;70295;40.182;44.498;2023-12-20T11:07:19;59.1;;;34.2;;
80868;SDS011;70295;40.182;44.498;2023-12-20T11:11:21;63;;;35;;
80868;SDS011;70295;40.182;44.498;2023-12-20T11:14:32;65.6;;;36.5;;
80868;SDS011;70295;40.182;44.498;2023-12-20T11:16:23;57.4;;;34.9;;
80868;SDS011;70295;40.182;44.498;2023-12-20T11:18:31;70.3;;;37.1;;
80868;SDS011;70295;40.182;44.498;2023-12-20T11:20:24;62.4;;;36.1;;
80868;SDS011;70295;40.182;44.498;2023-12-20T11:22:27;66.9;;;36;;
80868;SDS011;70295;40.182;44.498;2023-12-20T11:24:25;59.9;;;34.2;;
80868;SDS011;70295;40.182;44.498;2023-12-20T11:26:27;61.7;;;34.6;;
80868;SDS011;70295;40.182;44.498;2023-12-20T11:28:24;60.4;;;35.6;;
80868;SDS011;70295;40.182;44.498;2023-12-20T11:34:14;60.3;;;36.2;;
80868;SDS011;70295;40.182;44.498;2023-12-20T11:36:15;59.9;;;35.3;;
80868;SDS011;70295;40.182;44.498;2023-12-20T11:38:12;58;;;35.1;;
80868;SDS011;70295;40.182;44.498;2023-12-20T12:01:28;55.6;;;30.7;;
80868;SDS011;70295;40.182;44.498;2023-12-20T12:03:28;49.1;;;31.8;;
80868;SDS011;70295;40.182;44.498;2023-12-20T12:07:06;55.3;;;32.7;;
80868;SDS011;70295;40.182;44.498;2023-12-20T12:09:06;56.4;;;30.3;;
80868;SDS011;70295;40.182;44.498;2023-12-20T12:12:17;52.8;;;31.1;;
80868;SDS011;70295;40.182;44.498;2023-12-20T12:14:16;54.3;;;30.8;;
80868;SDS011;70295;40.182;44.498;2023-12-20T12:16:21;50.4;;;31.2;;
80868;SDS011;70295;40.182;44.498;2023-12-20T12:18:17;62.9;;;35.2;;
80868;SDS011;70295;40.182;44.498;2023-12-20T12:20:20;56.9;;;32.9;;
80868;SDS011;70295;40.182;44.498;2023-12-20T12:22:16;54.9;;;31.7;;
80868;SDS011;70295;40.182;44.498;2023-12-20T12:24:20;53.6;;;31;;
80868;SDS011;70295;40.182;44.498;2023-12-20T12:47:53;51.2;;;29.3;;
80868;SDS011;70295;40.182;44.498;2023-12-20T12:49:53;51.4;;;29.2;;
80868;SDS011;70295;40.182;44.498;2023-12-20T12:51:53;49.8;;;30;;
80868;SDS011;70295;40.182;44.498;2023-12-20T12:53:53;51.8;;;31.1;;
80868;SDS011;70295;40.182;44.498;2023-12-20T13:02:37;60;;;33.2;;
80868;SDS011;70295;40.182;44.498;2023-12-20T13:04:47;58.4;;;31.8;;
80868;SDS011;70295;40.182;44.498;2023-12-20T13:14:34;57;;;32.5;;
80868;SDS011;70295;40.182;44.498;2023-12-20T13:21:09;51.9;;;29.1;;
80868;SDS011;70295;40.182;44.498;2023-12-20T13:23:09;54.8;;;29.9;;
80868;SDS011;70295;40.182;44.498;2023-12-20T13:25:09;54.6;;;30.5;;
80868;SDS011;70295;40.182;44.498;2023-12-20T13:27:09;53.5;;;31.9;;
80868;SDS011;70295;40.182;44.498;2023-12-20T13:29:09;51.1;;;30;;
80868;SDS011;70295;40.182;44.498;2023-12-20T13:32:32;53.6;;;30.8;;
80868;SDS011;70295;40.182;44.498;2023-12-20T13:34:32;55.5;;;31.7;;
80868;SDS011;70295;40.182;44.498;2023-12-20T13:36:32;54.7;;;31.3;;
80868;SDS011;70295;40.182;44.498;2023-12-20T13:38:32;57.7;;;31;;
80868;SDS011;70295;40.182;44.498;2023-12-20T13:40:32;52.1;;;30.4;;
80868;SDS011;70295;40.182;44.498;2023-12-20T13:42:32;50.6;;;29.2;;
80868;SDS011;70295;40.182;44.498;2023-12-20T13:44:32;52.2;;;30.2;;
80868;SDS011;70295;40.182;44.498;2023-12-20T13:46:32;52.3;;;28.7;;
80868;SDS011;70295;40.182;44.498;2023-12-20T13:48:32;47.2;;;28.5;;
80868;SDS011;70295;40.182;44.498;2023-12-20T13:53:37;54.9;;;29.8;;
80868;SDS011;70295;40.182;44.498;2023-12-20T13:56:04;55;;;30.1;;
80868;SDS011;70295;40.182;44.498;2023-12-20T13:57:51;53;;;29.5;;
80868;SDS011;70295;40.182;44.498;2023-12-20T13:59:51;54.9;;;30.5;;
80868;SDS011;70295;40.182;44.498;2023-12-20T14:01:51;54.4;;;30;;
80868;SDS011;70295;40.182;44.498;2023-12-20T14:03:51;52.8;;;28.1;;
80868;SDS011;70295;40.182;44.498;2023-12-20T14:05:51;50.1;;;28.8;;
80868;SDS011;70295;40.182;44.498;2023-12-20T14:07:51;48.3;;;28.4;;
80868;SDS011;70295;40.182;44.498;2023-12-20T14:09:51;51;;;30.8;;
80868;SDS011;70295;40.182;44.498;2023-12-20T14:11:51;52.5;;;30.7;;
80868;SDS011;70295;40.182;44.498;2023-12-20T14:13:51;54.3;;;30;;
80868;SDS011;70295;40.182;44.498;2023-12-20T14:15:51;53.6;;;30.1;;
80868;SDS011;70295;40.182;44.498;2023-12-20T14:17:51;56.6;;;32.1;;
80868;SDS011;70295;40.182;44.498;2023-12-20T14:19:51;58.5;;;31.8;;
80868;SDS011;70295;40.182;44.498;2023-12-20T14:21:51;56.8;;;31.3;;
80868;SDS011;70295;40.182;44.498;2023-12-20T14:23:51;62;;;34.2;;
80868;SDS011;70295;40.182;44.498;2023-12-20T14:25:51;57.3;;;32.1;;
80868;SDS011;70295;40.182;44.498;2023-12-20T14:27:51;56.9;;;31.8;;
80868;SDS011;70295;40.182;44.498;2023-12-20T14:29:51;55.2;;;31.8;;
80868;SDS011;70295;40.182;44.498;2023-12-20T14:31:51;54.6;;;31.1;;
80868;SDS011;70295;40.182;44.498;2023-12-20T14:33:51;52.3;;;31.3;;
80868;SDS011;70295;40.182;44.498;2023-12-20T14:35:51;52;;;29.7;;
80868;SDS011;70295;40.182;44.498;2023-12-20T14:37:51;55.5;;;31.3;;
80868;SDS011;70295;40.182;44.498;2023-12-20T14:39:51;55;;;32.6;;
80868;SDS011;70295;40.182;44.498;2023-12-20T14:41:51;56.6;;;31.6;;
80868;SDS011;70295;40.182;44.498;2023-12-20T14:43:51;53;;;32;;
80868;SDS011;70295;40.182;44.498;2023-12-20T14:45:51;56;;;32.1;;
80868;SDS011;70295;40.182;44.498;2023-12-20T14:47:51;52.5;;;30.9;;
80868;SDS011;70295;40.182;44.498;2023-12-20T14:49:51;50.5;;;30.2;;
80868;SDS011;70295;40.182;44.498;2023-12-20T14:51:51;51.1;;;30.8;;
80868;SDS011;70295;40.182;44.498;2023-12-20T14:53:51;51.1;;;30.4;;
80868;SDS011;70295;40.182;44.498;2023-12-20T14:55:51;54.7;;;30.6;;
80868;SDS011;70295;40.182;44.498;2023-12-20T14:57:51;58.1;;;30.5;;
80868;SDS011;70295;40.182;44.498;2023-12-20T14:59:51;53.2;;;31.6;;
80868;SDS011;70295;40.182;44.498;2023-12-20T15:01:51;55.3;;;30;;
80868;SDS011;70295;40.182;44.498;2023-12-20T15:03:51;52.3;;;29.8;;
80868;SDS011;70295;40.182;44.498;2023-12-20T15:05:51;56.8;;;29.6;;
80868;SDS011;70295;40.182;44.498;2023-12-20T15:07:51;56.3;;;31.6;;
80868;SDS011;70295;40.182;44.498;2023-12-20T15:09:51;55.8;;;30;;
80868;SDS011;70295;40.182;44.498;2023-12-20T15:11:51;52.9;;;30.2;;
80868;SDS011;70295;40.182;44.498;2023-12-20T15:13:51;53.3;;;30.9;;
80868;SDS011;70295;40.182;44.498;2023-12-20T15:15:51;51.1;;;30.3;;
80868;SDS011;70295;40.182;44.498;2023-12-20T15:17:51;54.7;;;32;;
80868;SDS011;70295;40.182;44.498;2023-12-20T15:19:51;56;;;32.8;;
80868;SDS011;70295;40.182;44.498;2023-12-20T15:21:51;54.6;;;30.7;;
80868;SDS011;70295;40.182;44.498;2023-12-20T15:23:51;58.9;;;32.1;;
80868;SDS011;70295;40.182;44.498;2023-12-20T15:25:51;63.5;;;34.5;;
80868;SDS011;70295;40.182;44.498;2023-12-20T15:27:51;60.2;;;34.4;;